sensor_id;sensor_type;location;lat;lon;timestamp;P1;durP1;ratioP1;P2;durP2;ratioP2
13753;SDS011;6948;51.216;6.778;2023-02-28T00:00:06;6.37;;;4.60;;
13753;SDS011;6948;51.216;6.778;2023-02-28T00:02:36;6.13;;;4.13;;
13753;SDS011;6948;51.216;6.778;2023-02-28T00:05:03;5.70;;;4.53;;
13753;SDS011;6948;51.216;6.778;2023-02-28T00:07:29;5.17;;;4.37;;
13753;SDS011;6948;51.216;6.778;2023-02-28T00:09:56;8.80;;;4.20;;
13753;SDS011;6948;51.216;6.778;2023-02-28T00:12:22;5.27;;;3.90;;
13753;SDS011;6948;51.216;6.778;2023-02-28T00:14:48;5.93;;;4.40;;
13753;SDS011;6948;51.216;6.778;2023-02-28T00:17:14;7.00;;;4.23;;
13753;SDS011;6948;51.216;6.778;2023-02-28T00:19:45;6.80;;;4.00;;
13753;SDS011;6948;51.216;6.778;2023-02-28T00:22:11;6.37;;;4.13;;
13753;SDS011;6948;51.216;6.778;2023-02-28T00:24:38;5.97;;;4.07;;
13753;SDS011;6948;51.216;6.778;2023-02-28T00:27:04;6.60;;;4.10;;
13753;SDS011;6948;51.216;6.778;2023-02-28T00:29:30;5.90;;;4.10;;
13753;SDS011;6948;51.216;6.778;2023-02-28T00:31:56;6.70;;;4.03;;
13753;SDS011;6948;51.216;6.778;2023-02-28T00:34:22;5.77;;;4.10;;
13753;SDS011;6948;51.216;6.778;2023-02-28T00:36:48;8.53;;;4.50;;
13753;SDS011;6948;51.216;6.778;2023-02-28T00:39:14;5.80;;;4.53;;
13753;SDS011;6948;51.216;6.778;2023-02-28T00:41:40;7.27;;;4.50;;
13753;SDS011;6948;51.216;6.778;2023-02-28T00:44:06;7.13;;;4.57;;
13753;SDS011;6948;51.216;6.778;2023-02-28T00:46:32;7.07;;;4.60;;
13753;SDS011;6948;51.216;6.778;2023-02-28T00:48:58;7.17;;;4.30;;
13753;SDS011;6948;51.216;6.778;2023-02-28T00:51:24;6.60;;;4.70;;
13753;SDS011;6948;51.216;6.778;2023-02-28T00:53:50;7.90;;;4.73;;
13753;SDS011;6948;51.216;6.778;2023-02-28T00:56:16;5.60;;;4.00;;
13753;SDS011;6948;51.216;6.778;2023-02-28T00:58:43;5.07;;;4.13;;
13753;SDS011;6948;51.216;6.778;2023-02-28T01:01:09;8.33;;;4.20;;
13753;SDS011;6948;51.216;6.778;2023-02-28T01:03:35;8.70;;;4.67;;
13753;SDS011;6948;51.216;6.778;2023-02-28T01:06:01;5.80;;;4.13;;
13753;SDS011;6948;51.216;6.778;2023-02-28T01:08:27;7.77;;;4.13;;
13753;SDS011;6948;51.216;6.778;2023-02-28T01:10:54;7.57;;;4.60;;
13753;SDS011;6948;51.216;6.778;2023-02-28T01:13:20;7.63;;;4.30;;
13753;SDS011;6948;51.216;6.778;2023-02-28T01:15:49;8.30;;;4.40;;
13753;SDS011;6948;51.216;6.778;2023-02-28T01:18:16;9.17;;;4.60;;
13753;SDS011;6948;51.216;6.778;2023-02-28T01:20:42;7.03;;;4.60;;
13753;SDS011;6948;51.216;6.778;2023-02-28T01:23:08;7.20;;;4.30;;
13753;SDS011;6948;51.216;6.778;2023-02-28T01:25:34;6.17;;;4.80;;
13753;SDS011;6948;51.216;6.778;2023-02-28T01:28:01;8.27;;;4.50;;
13753;SDS011;6948;51.216;6.778;2023-02-28T01:30:27;6.87;;;4.63;;
13753;SDS011;6948;51.216;6.778;2023-02-28T01:32:53;6.83;;;4.50;;
13753;SDS011;6948;51.216;6.778;2023-02-28T01:35:19;5.67;;;4.17;;
13753;SDS011;6948;51.216;6.778;2023-02-28T01:37:45;8.13;;;4.30;;
13753;SDS011;6948;51.216;6.778;2023-02-28T01:40:11;6.27;;;4.70;;
13753;SDS011;6948;51.216;6.778;2023-02-28T01:42:38;6.03;;;4.27;;
13753;SDS011;6948;51.216;6.778;2023-02-28T01:47:41;7.67;;;5.10;;
13753;SDS011;6948;51.216;6.778;2023-02-28T01:50:10;8.20;;;5.70;;
13753;SDS011;6948;51.216;6.778;2023-02-28T01:52:38;7.07;;;5.40;;
13753;SDS011;6948;51.216;6.778;2023-02-28T01:55:04;8.07;;;5.30;;
13753;SDS011;6948;51.216;6.778;2023-02-28T01:57:32;8.57;;;5.20;;
13753;SDS011;6948;51.216;6.778;2023-02-28T02:00:19;9.90;;;5.43;;
13753;SDS011;6948;51.216;6.778;2023-02-28T02:02:50;6.70;;;4.90;;
13753;SDS011;6948;51.216;6.778;2023-02-28T02:05:18;6.83;;;5.00;;
13753;SDS011;6948;51.216;6.778;2023-02-28T02:07:46;8.93;;;5.60;;
13753;SDS011;6948;51.216;6.778;2023-02-28T02:10:14;6.87;;;4.80;;
13753;SDS011;6948;51.216;6.778;2023-02-28T02:15:30;6.30;;;4.53;;
13753;SDS011;6948;51.216;6.778;2023-02-28T02:17:57;7.53;;;5.20;;
13753;SDS011;6948;51.216;6.778;2023-02-28T02:26:06;7.87;;;4.90;;
13753;SDS011;6948;51.216;6.778;2023-02-28T02:36:49;6.13;;;4.97;;
13753;SDS011;6948;51.216;6.778;2023-02-28T02:39:28;6.83;;;4.70;;
13753;SDS011;6948;51.216;6.778;2023-02-28T02:41:56;7.57;;;5.23;;
13753;SDS011;6948;51.216;6.778;2023-02-28T02:44:26;6.87;;;4.90;;
13753;SDS011;6948;51.216;6.778;2023-02-28T02:46:54;6.83;;;4.70;;
13753;SDS011;6948;51.216;6.778;2023-02-28T02:49:25;7.47;;;5.00;;
13753;SDS011;6948;51.216;6.778;2023-02-28T02:51:52;7.33;;;5.17;;
13753;SDS011;6948;51.216;6.778;2023-02-28T02:54:20;6.43;;;4.93;;
13753;SDS011;6948;51.216;6.778;2023-02-28T02:56:48;7.53;;;4.97;;
13753;SDS011;6948;51.216;6.778;2023-02-28T02:59:16;8.13;;;4.53;;
13753;SDS011;6948;51.216;6.778;2023-02-28T03:01:46;7.00;;;4.90;;
13753;SDS011;6948;51.216;6.778;2023-02-28T03:04:16;6.67;;;4.70;;
13753;SDS011;6948;51.216;6.778;2023-02-28T03:06:43;7.13;;;4.87;;
13753;SDS011;6948;51.216;6.778;2023-02-28T03:09:09;9.10;;;5.00;;
13753;SDS011;6948;51.216;6.778;2023-02-28T03:11:35;7.10;;;5.13;;
13753;SDS011;6948;51.216;6.778;2023-02-28T03:16:53;7.67;;;4.87;;
13753;SDS011;6948;51.216;6.778;2023-02-28T03:19:34;5.70;;;4.90;;
13753;SDS011;6948;51.216;6.778;2023-02-28T03:24:51;8.10;;;5.20;;
13753;SDS011;6948;51.216;6.778;2023-02-28T03:27:23;8.00;;;4.93;;
13753;SDS011;6948;51.216;6.778;2023-02-28T03:29:52;6.57;;;4.90;;
13753;SDS011;6948;51.216;6.778;2023-02-28T03:32:23;7.80;;;4.70;;
13753;SDS011;6948;51.216;6.778;2023-02-28T03:34:53;7.67;;;5.10;;
13753;SDS011;6948;51.216;6.778;2023-02-28T03:37:22;6.63;;;4.57;;
13753;SDS011;6948;51.216;6.778;2023-02-28T03:39:54;6.67;;;4.70;;
13753;SDS011;6948;51.216;6.778;2023-02-28T03:42:23;6.17;;;4.50;;
13753;SDS011;6948;51.216;6.778;2023-02-28T03:44:51;6.27;;;4.23;;
13753;SDS011;6948;51.216;6.778;2023-02-28T03:47:21;8.10;;;4.30;;
13753;SDS011;6948;51.216;6.778;2023-02-28T03:49:52;5.67;;;4.30;;
13753;SDS011;6948;51.216;6.778;2023-02-28T03:52:19;6.43;;;3.93;;
13753;SDS011;6948;51.216;6.778;2023-02-28T03:54:49;6.97;;;4.20;;
13753;SDS011;6948;51.216;6.778;2023-02-28T04:00:14;6.80;;;4.53;;
13753;SDS011;6948;51.216;6.778;2023-02-28T04:02:47;6.17;;;4.27;;
13753;SDS011;6948;51.216;6.778;2023-02-28T04:08:13;6.17;;;4.07;;
13753;SDS011;6948;51.216;6.778;2023-02-28T04:10:42;6.63;;;4.20;;
13753;SDS011;6948;51.216;6.778;2023-02-28T04:13:18;6.73;;;4.27;;
13753;SDS011;6948;51.216;6.778;2023-02-28T04:15:49;5.93;;;4.27;;
13753;SDS011;6948;51.216;6.778;2023-02-28T04:18:20;5.37;;;3.97;;
13753;SDS011;6948;51.216;6.778;2023-02-28T04:20:59;5.13;;;4.10;;
13753;SDS011;6948;51.216;6.778;2023-02-28T04:23:30;4.83;;;3.90;;
13753;SDS011;6948;51.216;6.778;2023-02-28T04:26:07;5.30;;;4.20;;
13753;SDS011;6948;51.216;6.778;2023-02-28T04:28:43;7.43;;;4.20;;
13753;SDS011;6948;51.216;6.778;2023-02-28T04:31:37;6.23;;;4.10;;
13753;SDS011;6948;51.216;6.778;2023-02-28T04:34:12;7.70;;;4.23;;
13753;SDS011;6948;51.216;6.778;2023-02-28T04:36:54;6.43;;;4.20;;
13753;SDS011;6948;51.216;6.778;2023-02-28T04:39:23;8.13;;;4.23;;
13753;SDS011;6948;51.216;6.778;2023-02-28T04:41:54;7.17;;;4.30;;
13753;SDS011;6948;51.216;6.778;2023-02-28T04:44:23;6.03;;;4.00;;
13753;SDS011;6948;51.216;6.778;2023-02-28T04:49:58;3.90;;;3.50;;
13753;SDS011;6948;51.216;6.778;2023-02-28T04:52:41;6.00;;;4.07;;
13753;SDS011;6948;51.216;6.778;2023-02-28T04:55:30;5.23;;;3.80;;
13753;SDS011;6948;51.216;6.778;2023-02-28T04:57:56;5.87;;;3.87;;
13753;SDS011;6948;51.216;6.778;2023-02-28T05:00:25;4.60;;;3.50;;
13753;SDS011;6948;51.216;6.778;2023-02-28T05:03:02;5.03;;;3.60;;
13753;SDS011;6948;51.216;6.778;2023-02-28T05:05:43;5.97;;;3.67;;
13753;SDS011;6948;51.216;6.778;2023-02-28T05:08:12;4.40;;;3.57;;
13753;SDS011;6948;51.216;6.778;2023-02-28T05:10:38;5.87;;;3.67;;
13753;SDS011;6948;51.216;6.778;2023-02-28T05:13:11;4.90;;;3.63;;
13753;SDS011;6948;51.216;6.778;2023-02-28T05:15:41;4.13;;;3.50;;
13753;SDS011;6948;51.216;6.778;2023-02-28T05:18:08;5.70;;;3.60;;
13753;SDS011;6948;51.216;6.778;2023-02-28T05:20:34;4.20;;;3.57;;
13753;SDS011;6948;51.216;6.778;2023-02-28T05:23:03;5.30;;;3.83;;
13753;SDS011;6948;51.216;6.778;2023-02-28T05:25:29;6.00;;;3.50;;
13753;SDS011;6948;51.216;6.778;2023-02-28T05:28:00;4.33;;;3.60;;
13753;SDS011;6948;51.216;6.778;2023-02-28T05:30:26;5.93;;;3.67;;
13753;SDS011;6948;51.216;6.778;2023-02-28T05:33:04;4.77;;;3.40;;
13753;SDS011;6948;51.216;6.778;2023-02-28T05:35:30;4.63;;;3.43;;
13753;SDS011;6948;51.216;6.778;2023-02-28T05:37:56;5.23;;;3.90;;
13753;SDS011;6948;51.216;6.778;2023-02-28T05:40:30;4.53;;;3.67;;
13753;SDS011;6948;51.216;6.778;2023-02-28T05:43:14;5.63;;;3.97;;
13753;SDS011;6948;51.216;6.778;2023-02-28T05:45:42;5.37;;;3.50;;
13753;SDS011;6948;51.216;6.778;2023-02-28T05:48:10;5.97;;;3.47;;
13753;SDS011;6948;51.216;6.778;2023-02-28T05:50:40;4.77;;;3.60;;
13753;SDS011;6948;51.216;6.778;2023-02-28T05:53:10;4.77;;;3.47;;
13753;SDS011;6948;51.216;6.778;2023-02-28T05:55:36;5.57;;;3.23;;
13753;SDS011;6948;51.216;6.778;2023-02-28T05:58:06;4.97;;;3.20;;
13753;SDS011;6948;51.216;6.778;2023-02-28T06:00:52;6.50;;;3.20;;
13753;SDS011;6948;51.216;6.778;2023-02-28T06:03:20;3.93;;;3.23;;
13753;SDS011;6948;51.216;6.778;2023-02-28T06:09:05;4.67;;;3.43;;
13753;SDS011;6948;51.216;6.778;2023-02-28T06:11:54;4.87;;;3.30;;
13753;SDS011;6948;51.216;6.778;2023-02-28T06:17:29;4.03;;;3.30;;
13753;SDS011;6948;51.216;6.778;2023-02-28T06:19:55;7.13;;;3.50;;
13753;SDS011;6948;51.216;6.778;2023-02-28T06:22:22;4.87;;;3.93;;
13753;SDS011;6948;51.216;6.778;2023-02-28T06:24:48;5.27;;;3.73;;
13753;SDS011;6948;51.216;6.778;2023-02-28T06:27:14;6.63;;;3.70;;
13753;SDS011;6948;51.216;6.778;2023-02-28T06:29:40;4.77;;;3.60;;
13753;SDS011;6948;51.216;6.778;2023-02-28T06:32:06;4.80;;;3.87;;
13753;SDS011;6948;51.216;6.778;2023-02-28T06:34:32;7.83;;;3.60;;
13753;SDS011;6948;51.216;6.778;2023-02-28T06:36:59;5.10;;;3.53;;
13753;SDS011;6948;51.216;6.778;2023-02-28T06:39:27;4.83;;;3.70;;
13753;SDS011;6948;51.216;6.778;2023-02-28T06:41:54;4.57;;;3.73;;
13753;SDS011;6948;51.216;6.778;2023-02-28T06:44:20;5.80;;;3.87;;
13753;SDS011;6948;51.216;6.778;2023-02-28T06:46:46;6.27;;;3.40;;
13753;SDS011;6948;51.216;6.778;2023-02-28T06:49:12;5.20;;;3.87;;
13753;SDS011;6948;51.216;6.778;2023-02-28T06:51:40;4.20;;;3.80;;
13753;SDS011;6948;51.216;6.778;2023-02-28T06:54:06;5.50;;;3.47;;
13753;SDS011;6948;51.216;6.778;2023-02-28T06:56:34;4.73;;;3.13;;
13753;SDS011;6948;51.216;6.778;2023-02-28T06:59:01;5.27;;;3.67;;
13753;SDS011;6948;51.216;6.778;2023-02-28T07:01:27;6.43;;;3.60;;
13753;SDS011;6948;51.216;6.778;2023-02-28T07:03:53;5.77;;;3.73;;
13753;SDS011;6948;51.216;6.778;2023-02-28T07:06:20;4.53;;;3.67;;
13753;SDS011;6948;51.216;6.778;2023-02-28T07:08:47;3.73;;;3.40;;
13753;SDS011;6948;51.216;6.778;2023-02-28T07:11:13;4.73;;;3.57;;
13753;SDS011;6948;51.216;6.778;2023-02-28T07:13:39;5.53;;;3.70;;
13753;SDS011;6948;51.216;6.778;2023-02-28T07:16:06;5.37;;;3.90;;
13753;SDS011;6948;51.216;6.778;2023-02-28T07:18:33;6.93;;;4.00;;
13753;SDS011;6948;51.216;6.778;2023-02-28T07:21:02;6.20;;;3.30;;
13753;SDS011;6948;51.216;6.778;2023-02-28T07:23:29;5.03;;;3.90;;
13753;SDS011;6948;51.216;6.778;2023-02-28T07:25:55;4.80;;;3.50;;
13753;SDS011;6948;51.216;6.778;2023-02-28T07:28:21;5.50;;;3.63;;
13753;SDS011;6948;51.216;6.778;2023-02-28T07:30:47;5.23;;;3.87;;
13753;SDS011;6948;51.216;6.778;2023-02-28T07:33:14;6.37;;;3.80;;
13753;SDS011;6948;51.216;6.778;2023-02-28T07:35:40;5.03;;;3.20;;
13753;SDS011;6948;51.216;6.778;2023-02-28T07:38:06;5.60;;;3.57;;
13753;SDS011;6948;51.216;6.778;2023-02-28T07:40:33;3.90;;;3.50;;
13753;SDS011;6948;51.216;6.778;2023-02-28T07:42:59;4.43;;;3.33;;
13753;SDS011;6948;51.216;6.778;2023-02-28T07:45:27;7.67;;;5.63;;
13753;SDS011;6948;51.216;6.778;2023-02-28T07:47:54;6.40;;;3.73;;
13753;SDS011;6948;51.216;6.778;2023-02-28T07:50:21;5.73;;;3.20;;
13753;SDS011;6948;51.216;6.778;2023-02-28T07:52:47;5.80;;;3.23;;
13753;SDS011;6948;51.216;6.778;2023-02-28T07:55:13;4.07;;;3.30;;
13753;SDS011;6948;51.216;6.778;2023-02-28T07:57:41;3.63;;;3.00;;
13753;SDS011;6948;51.216;6.778;2023-02-28T08:00:09;6.10;;;3.30;;
13753;SDS011;6948;51.216;6.778;2023-02-28T08:02:37;3.17;;;2.87;;
13753;SDS011;6948;51.216;6.778;2023-02-28T08:05:03;5.07;;;3.10;;
13753;SDS011;6948;51.216;6.778;2023-02-28T08:07:29;4.47;;;3.07;;
13753;SDS011;6948;51.216;6.778;2023-02-28T08:09:56;6.57;;;3.10;;
13753;SDS011;6948;51.216;6.778;2023-02-28T08:12:22;5.17;;;3.07;;
13753;SDS011;6948;51.216;6.778;2023-02-28T08:14:48;4.73;;;3.10;;
13753;SDS011;6948;51.216;6.778;2023-02-28T08:17:14;3.80;;;3.20;;
13753;SDS011;6948;51.216;6.778;2023-02-28T08:19:40;3.23;;;2.83;;
13753;SDS011;6948;51.216;6.778;2023-02-28T08:22:06;3.73;;;2.87;;
13753;SDS011;6948;51.216;6.778;2023-02-28T08:24:32;4.53;;;2.90;;
13753;SDS011;6948;51.216;6.778;2023-02-28T08:26:58;3.80;;;2.80;;
13753;SDS011;6948;51.216;6.778;2023-02-28T08:29:24;3.23;;;2.90;;
13753;SDS011;6948;51.216;6.778;2023-02-28T08:31:50;4.97;;;3.07;;
13753;SDS011;6948;51.216;6.778;2023-02-28T08:34:16;5.70;;;3.30;;
13753;SDS011;6948;51.216;6.778;2023-02-28T08:36:43;3.73;;;2.90;;
13753;SDS011;6948;51.216;6.778;2023-02-28T08:39:10;4.17;;;3.07;;
13753;SDS011;6948;51.216;6.778;2023-02-28T08:41:36;4.70;;;3.20;;
13753;SDS011;6948;51.216;6.778;2023-02-28T08:44:02;5.83;;;3.00;;
13753;SDS011;6948;51.216;6.778;2023-02-28T08:46:29;4.60;;;3.07;;
13753;SDS011;6948;51.216;6.778;2023-02-28T08:48:55;4.03;;;3.17;;
13753;SDS011;6948;51.216;6.778;2023-02-28T08:51:25;7.37;;;3.20;;
13753;SDS011;6948;51.216;6.778;2023-02-28T08:53:52;3.27;;;2.83;;
13753;SDS011;6948;51.216;6.778;2023-02-28T08:56:18;3.30;;;2.90;;
13753;SDS011;6948;51.216;6.778;2023-02-28T08:58:45;4.73;;;3.37;;
13753;SDS011;6948;51.216;6.778;2023-02-28T09:01:13;5.83;;;2.80;;
13753;SDS011;6948;51.216;6.778;2023-02-28T09:03:40;3.83;;;3.10;;
13753;SDS011;6948;51.216;6.778;2023-02-28T09:06:07;4.37;;;2.73;;
13753;SDS011;6948;51.216;6.778;2023-02-28T09:08:34;2.93;;;2.60;;
13753;SDS011;6948;51.216;6.778;2023-02-28T09:11:00;5.67;;;2.83;;
13753;SDS011;6948;51.216;6.778;2023-02-28T09:13:28;4.33;;;2.70;;
13753;SDS011;6948;51.216;6.778;2023-02-28T09:15:57;3.97;;;2.27;;
13753;SDS011;6948;51.216;6.778;2023-02-28T09:18:23;4.80;;;2.80;;
13753;SDS011;6948;51.216;6.778;2023-02-28T09:20:49;2.63;;;2.43;;
13753;SDS011;6948;51.216;6.778;2023-02-28T09:23:15;4.03;;;2.50;;
13753;SDS011;6948;51.216;6.778;2023-02-28T09:25:57;3.17;;;2.37;;
13753;SDS011;6948;51.216;6.778;2023-02-28T09:28:23;5.57;;;2.60;;
13753;SDS011;6948;51.216;6.778;2023-02-28T09:30:50;2.97;;;2.30;;
13753;SDS011;6948;51.216;6.778;2023-02-28T09:33:17;2.30;;;1.90;;
13753;SDS011;6948;51.216;6.778;2023-02-28T09:35:45;2.87;;;2.40;;
13753;SDS011;6948;51.216;6.778;2023-02-28T09:38:12;3.33;;;2.40;;
13753;SDS011;6948;51.216;6.778;2023-02-28T09:43:28;3.07;;;2.40;;
13753;SDS011;6948;51.216;6.778;2023-02-28T09:46:00;2.10;;;1.90;;
13753;SDS011;6948;51.216;6.778;2023-02-28T09:48:29;3.50;;;2.47;;
13753;SDS011;6948;51.216;6.778;2023-02-28T09:51:09;3.60;;;2.33;;
13753;SDS011;6948;51.216;6.778;2023-02-28T09:53:38;4.43;;;2.57;;
13753;SDS011;6948;51.216;6.778;2023-02-28T10:06:58;3.13;;;2.30;;
13753;SDS011;6948;51.216;6.778;2023-02-28T10:09:29;2.70;;;2.30;;
13753;SDS011;6948;51.216;6.778;2023-02-28T10:11:56;3.17;;;2.63;;
13753;SDS011;6948;51.216;6.778;2023-02-28T10:14:26;4.77;;;2.60;;
13753;SDS011;6948;51.216;6.778;2023-02-28T10:16:55;3.27;;;2.80;;
13753;SDS011;6948;51.216;6.778;2023-02-28T10:19:24;5.30;;;2.50;;
13753;SDS011;6948;51.216;6.778;2023-02-28T10:21:55;3.27;;;2.40;;
13753;SDS011;6948;51.216;6.778;2023-02-28T10:27:17;3.13;;;2.60;;
13753;SDS011;6948;51.216;6.778;2023-02-28T10:29:44;3.57;;;2.30;;
13753;SDS011;6948;51.216;6.778;2023-02-28T10:32:11;2.30;;;2.10;;
13753;SDS011;6948;51.216;6.778;2023-02-28T10:34:38;3.17;;;2.17;;
13753;SDS011;6948;51.216;6.778;2023-02-28T10:37:04;4.00;;;2.27;;
13753;SDS011;6948;51.216;6.778;2023-02-28T10:39:37;2.87;;;2.10;;
13753;SDS011;6948;51.216;6.778;2023-02-28T10:42:03;3.67;;;2.23;;
13753;SDS011;6948;51.216;6.778;2023-02-28T10:44:29;4.00;;;2.70;;
13753;SDS011;6948;51.216;6.778;2023-02-28T10:46:55;4.57;;;2.60;;
13753;SDS011;6948;51.216;6.778;2023-02-28T10:51:59;4.13;;;2.70;;
13753;SDS011;6948;51.216;6.778;2023-02-28T10:54:34;2.67;;;2.30;;
13753;SDS011;6948;51.216;6.778;2023-02-28T10:57:11;2.63;;;2.20;;
13753;SDS011;6948;51.216;6.778;2023-02-28T10:59:40;7.07;;;2.53;;
13753;SDS011;6948;51.216;6.778;2023-02-28T11:02:28;3.03;;;2.30;;
13753;SDS011;6948;51.216;6.778;2023-02-28T11:04:52;2.57;;;2.27;;
13753;SDS011;6948;51.216;6.778;2023-02-28T11:07:19;2.77;;;2.27;;
13753;SDS011;6948;51.216;6.778;2023-02-28T11:09:46;5.47;;;2.53;;
13753;SDS011;6948;51.216;6.778;2023-02-28T11:12:23;3.33;;;2.60;;
13753;SDS011;6948;51.216;6.778;2023-02-28T11:14:51;3.00;;;2.10;;
13753;SDS011;6948;51.216;6.778;2023-02-28T11:17:20;2.77;;;2.37;;
13753;SDS011;6948;51.216;6.778;2023-02-28T11:19:47;3.13;;;2.30;;
13753;SDS011;6948;51.216;6.778;2023-02-28T11:22:18;2.60;;;2.10;;
13753;SDS011;6948;51.216;6.778;2023-02-28T11:24:46;4.53;;;2.27;;
13753;SDS011;6948;51.216;6.778;2023-02-28T11:29:59;4.93;;;2.70;;
13753;SDS011;6948;51.216;6.778;2023-02-28T11:32:26;4.17;;;2.77;;
13753;SDS011;6948;51.216;6.778;2023-02-28T11:37:45;3.67;;;2.60;;
13753;SDS011;6948;51.216;6.778;2023-02-28T11:40:13;3.13;;;2.53;;
13753;SDS011;6948;51.216;6.778;2023-02-28T11:45:37;3.10;;;2.60;;
13753;SDS011;6948;51.216;6.778;2023-02-28T11:48:12;4.43;;;2.40;;
13753;SDS011;6948;51.216;6.778;2023-02-28T11:50:45;3.57;;;2.47;;
13753;SDS011;6948;51.216;6.778;2023-02-28T11:53:17;3.70;;;2.57;;
13753;SDS011;6948;51.216;6.778;2023-02-28T11:55:49;2.90;;;2.23;;
13753;SDS011;6948;51.216;6.778;2023-02-28T11:58:35;3.53;;;2.43;;
13753;SDS011;6948;51.216;6.778;2023-02-28T12:03:51;4.83;;;2.30;;
13753;SDS011;6948;51.216;6.778;2023-02-28T12:09:40;3.90;;;2.60;;
13753;SDS011;6948;51.216;6.778;2023-02-28T12:14:28;3.00;;;2.47;;
13753;SDS011;6948;51.216;6.778;2023-02-28T12:19:54;2.90;;;2.27;;
13753;SDS011;6948;51.216;6.778;2023-02-28T12:27:47;5.03;;;3.00;;
13753;SDS011;6948;51.216;6.778;2023-02-28T12:30:19;4.20;;;3.20;;
13753;SDS011;6948;51.216;6.778;2023-02-28T12:32:48;3.03;;;2.43;;
13753;SDS011;6948;51.216;6.778;2023-02-28T12:35:17;3.83;;;2.60;;
13753;SDS011;6948;51.216;6.778;2023-02-28T12:40:26;3.53;;;2.60;;
13753;SDS011;6948;51.216;6.778;2023-02-28T12:42:56;4.03;;;2.63;;
13753;SDS011;6948;51.216;6.778;2023-02-28T12:45:24;3.33;;;2.80;;
13753;SDS011;6948;51.216;6.778;2023-02-28T12:47:55;5.40;;;3.10;;
13753;SDS011;6948;51.216;6.778;2023-02-28T12:50:24;4.70;;;3.67;;
13753;SDS011;6948;51.216;6.778;2023-02-28T12:52:56;5.50;;;3.33;;
13753;SDS011;6948;51.216;6.778;2023-02-28T12:58:08;5.87;;;2.60;;
13753;SDS011;6948;51.216;6.778;2023-02-28T13:00:38;7.93;;;3.20;;
13753;SDS011;6948;51.216;6.778;2023-02-28T13:03:16;4.07;;;2.73;;
13753;SDS011;6948;51.216;6.778;2023-02-28T13:08:26;3.43;;;2.60;;
13753;SDS011;6948;51.216;6.778;2023-02-28T13:10:59;3.30;;;2.80;;
13753;SDS011;6948;51.216;6.778;2023-02-28T13:13:27;5.07;;;3.10;;
13753;SDS011;6948;51.216;6.778;2023-02-28T13:16:10;4.37;;;3.30;;
13753;SDS011;6948;51.216;6.778;2023-02-28T13:18:41;4.63;;;3.60;;
13753;SDS011;6948;51.216;6.778;2023-02-28T13:21:10;2.90;;;2.60;;
13753;SDS011;6948;51.216;6.778;2023-02-28T13:34:41;3.07;;;2.70;;
13753;SDS011;6948;51.216;6.778;2023-02-28T13:42:34;3.23;;;2.63;;
13753;SDS011;6948;51.216;6.778;2023-02-28T13:47:42;3.70;;;3.27;;
13753;SDS011;6948;51.216;6.778;2023-02-28T14:06:26;4.70;;;3.20;;
13753;SDS011;6948;51.216;6.778;2023-02-28T14:11:33;5.83;;;3.10;;
13753;SDS011;6948;51.216;6.778;2023-02-28T14:14:00;3.53;;;2.93;;
13753;SDS011;6948;51.216;6.778;2023-02-28T14:16:27;4.33;;;3.40;;
13753;SDS011;6948;51.216;6.778;2023-02-28T14:18:59;4.60;;;2.93;;
13753;SDS011;6948;51.216;6.778;2023-02-28T14:21:28;3.97;;;3.30;;
13753;SDS011;6948;51.216;6.778;2023-02-28T14:26:37;4.80;;;3.00;;
13753;SDS011;6948;51.216;6.778;2023-02-28T14:34:35;4.20;;;2.80;;
13753;SDS011;6948;51.216;6.778;2023-02-28T14:37:02;3.73;;;3.00;;
13753;SDS011;6948;51.216;6.778;2023-02-28T14:39:28;5.20;;;3.13;;
13753;SDS011;6948;51.216;6.778;2023-02-28T14:41:55;6.00;;;3.90;;
13753;SDS011;6948;51.216;6.778;2023-02-28T14:44:25;4.43;;;3.53;;
13753;SDS011;6948;51.216;6.778;2023-02-28T14:46:53;3.30;;;3.00;;
13753;SDS011;6948;51.216;6.778;2023-02-28T14:49:21;3.53;;;2.90;;
13753;SDS011;6948;51.216;6.778;2023-02-28T14:51:50;3.97;;;3.00;;
13753;SDS011;6948;51.216;6.778;2023-02-28T14:54:26;4.50;;;3.10;;
13753;SDS011;6948;51.216;6.778;2023-02-28T14:56:52;3.97;;;3.20;;
13753;SDS011;6948;51.216;6.778;2023-02-28T14:59:23;4.13;;;3.40;;
13753;SDS011;6948;51.216;6.778;2023-02-28T15:01:50;5.30;;;3.53;;
13753;SDS011;6948;51.216;6.778;2023-02-28T15:04:21;6.83;;;3.43;;
13753;SDS011;6948;51.216;6.778;2023-02-28T15:07:06;4.67;;;3.40;;
13753;SDS011;6948;51.216;6.778;2023-02-28T15:09:32;4.13;;;2.80;;
13753;SDS011;6948;51.216;6.778;2023-02-28T15:11:58;3.37;;;3.03;;
13753;SDS011;6948;51.216;6.778;2023-02-28T15:14:24;4.70;;;3.07;;
13753;SDS011;6948;51.216;6.778;2023-02-28T15:16:55;5.40;;;3.77;;
13753;SDS011;6948;51.216;6.778;2023-02-28T15:19:23;4.07;;;2.80;;
13753;SDS011;6948;51.216;6.778;2023-02-28T15:21:54;4.03;;;3.00;;
13753;SDS011;6948;51.216;6.778;2023-02-28T15:24:24;4.40;;;3.20;;
13753;SDS011;6948;51.216;6.778;2023-02-28T15:26:57;4.07;;;3.27;;
13753;SDS011;6948;51.216;6.778;2023-02-28T15:29:24;3.97;;;3.07;;
13753;SDS011;6948;51.216;6.778;2023-02-28T15:31:53;4.93;;;3.33;;
13753;SDS011;6948;51.216;6.778;2023-02-28T15:34:22;4.43;;;3.13;;
13753;SDS011;6948;51.216;6.778;2023-02-28T15:36:48;3.57;;;3.07;;
13753;SDS011;6948;51.216;6.778;2023-02-28T15:39:18;5.63;;;3.40;;
13753;SDS011;6948;51.216;6.778;2023-02-28T15:41:44;5.53;;;3.30;;
13753;SDS011;6948;51.216;6.778;2023-02-28T15:44:15;3.77;;;2.80;;
13753;SDS011;6948;51.216;6.778;2023-02-28T15:46:43;3.57;;;3.23;;
13753;SDS011;6948;51.216;6.778;2023-02-28T15:49:17;3.30;;;3.00;;
13753;SDS011;6948;51.216;6.778;2023-02-28T15:51:44;4.57;;;3.20;;
13753;SDS011;6948;51.216;6.778;2023-02-28T15:54:15;4.47;;;3.43;;
13753;SDS011;6948;51.216;6.778;2023-02-28T15:56:45;3.50;;;3.10;;
13753;SDS011;6948;51.216;6.778;2023-02-28T15:59:16;5.23;;;2.90;;
13753;SDS011;6948;51.216;6.778;2023-02-28T16:01:42;4.47;;;3.13;;
13753;SDS011;6948;51.216;6.778;2023-02-28T16:04:13;3.40;;;3.10;;
13753;SDS011;6948;51.216;6.778;2023-02-28T16:06:41;5.43;;;3.10;;
13753;SDS011;6948;51.216;6.778;2023-02-28T16:09:09;4.60;;;3.60;;
13753;SDS011;6948;51.216;6.778;2023-02-28T16:11:37;3.67;;;3.30;;
13753;SDS011;6948;51.216;6.778;2023-02-28T16:14:03;4.33;;;3.23;;
13753;SDS011;6948;51.216;6.778;2023-02-28T16:16:30;4.67;;;3.23;;
13753;SDS011;6948;51.216;6.778;2023-02-28T16:18:57;5.87;;;3.10;;
13753;SDS011;6948;51.216;6.778;2023-02-28T16:21:23;6.43;;;3.53;;
13753;SDS011;6948;51.216;6.778;2023-02-28T16:23:50;4.90;;;3.47;;
13753;SDS011;6948;51.216;6.778;2023-02-28T16:26:21;4.50;;;3.60;;
13753;SDS011;6948;51.216;6.778;2023-02-28T16:28:48;4.70;;;3.57;;
13753;SDS011;6948;51.216;6.778;2023-02-28T16:31:18;4.63;;;3.77;;
13753;SDS011;6948;51.216;6.778;2023-02-28T16:33:44;5.43;;;3.60;;
13753;SDS011;6948;51.216;6.778;2023-02-28T16:36:12;5.07;;;3.83;;
13753;SDS011;6948;51.216;6.778;2023-02-28T16:38:39;4.67;;;4.00;;
13753;SDS011;6948;51.216;6.778;2023-02-28T16:41:05;5.70;;;4.10;;
13753;SDS011;6948;51.216;6.778;2023-02-28T16:43:31;4.13;;;3.73;;
13753;SDS011;6948;51.216;6.778;2023-02-28T16:45:57;4.13;;;3.73;;
13753;SDS011;6948;51.216;6.778;2023-02-28T16:48:24;6.03;;;3.77;;
13753;SDS011;6948;51.216;6.778;2023-02-28T16:50:50;4.67;;;3.43;;
13753;SDS011;6948;51.216;6.778;2023-02-28T16:53:16;6.83;;;3.83;;
13753;SDS011;6948;51.216;6.778;2023-02-28T16:55:43;5.83;;;3.73;;
13753;SDS011;6948;51.216;6.778;2023-02-28T16:58:12;6.90;;;4.00;;
13753;SDS011;6948;51.216;6.778;2023-02-28T17:00:40;8.83;;;4.00;;
13753;SDS011;6948;51.216;6.778;2023-02-28T17:03:09;4.67;;;3.67;;
13753;SDS011;6948;51.216;6.778;2023-02-28T17:05:39;5.13;;;3.60;;
13753;SDS011;6948;51.216;6.778;2023-02-28T17:08:05;3.83;;;3.30;;
13753;SDS011;6948;51.216;6.778;2023-02-28T17:10:31;5.33;;;3.50;;
13753;SDS011;6948;51.216;6.778;2023-02-28T17:12:57;4.47;;;3.60;;
13753;SDS011;6948;51.216;6.778;2023-02-28T17:15:23;4.87;;;3.73;;
13753;SDS011;6948;51.216;6.778;2023-02-28T17:17:49;4.40;;;3.87;;
13753;SDS011;6948;51.216;6.778;2023-02-28T17:20:16;5.37;;;3.70;;
13753;SDS011;6948;51.216;6.778;2023-02-28T17:22:43;6.20;;;3.83;;
13753;SDS011;6948;51.216;6.778;2023-02-28T17:25:10;6.10;;;4.20;;
13753;SDS011;6948;51.216;6.778;2023-02-28T17:27:36;5.10;;;3.97;;